Time;durP1;ratioP1;P1;durP2;ratioP2;P2;SDS_P1;SDS_P2;PMS_P1;PMS_P2;Temp;Humidity;BMP_temperature;BMP_pressure;BME280_temperature;BME280_humidity;BME280_pressure;Samples;Min_cycle;Max_cycle;Signal;HPM_P1;HPM_P2
2023/07/05 00:00:35;;;;;;;;;;;14.70;99.90;;;;;;5093762;28;19924;-79
2023/07/05 00:03:01;;;;;;;;;;;14.70;99.90;;;;;;5100222;28;19935;-79
2023/07/05 00:05:26;;;;;;;;;;;14.70;99.90;;;;;;5108694;27;19996;-81
2023/07/05 00:07:52;;;;;;;;;;;14.60;99.90;;;;;;5105120;28;19924;-80
2023/07/05 00:10:18;;;;;;;;;;;14.60;99.90;;;;;;5101748;28;19924;-78
2023/07/05 00:12:44;;;;;;;;;;;14.60;99.90;;;;;;5097363;28;19931;-79
2023/07/05 00:15:10;;;;;;;;;;;14.60;99.90;;;;;;5091541;28;19967;-78
2023/07/05 00:17:35;;;;;;;;;;;14.60;99.90;;;;;;5091291;28;19970;-78
2023/07/05 00:20:04;;;;;;;;;;;14.60;99.90;;;;;;5095937;28;19924;-79
2023/07/05 00:22:30;;;;;;;;;;;14.60;99.90;;;;;;5077221;28;20362;-79
2023/07/05 00:24:56;;;;;;;;;;;14.60;99.90;;;;;;5093141;28;19941;-79
2023/07/05 00:27:22;;;;;;;;;;;14.60;99.90;;;;;;5087429;28;19935;-78
2023/07/05 00:29:50;;;;;;;;;;;14.60;99.90;;;;;;5078861;28;19972;-80
2023/07/05 00:32:16;;;;;;;;;;;14.50;99.90;;;;;;5089521;28;20294;-78
2023/07/05 00:34:42;;;;;;;;;;;14.50;99.90;;;;;;5084279;28;19924;-78
2023/07/05 00:37:07;;;;;;;;;;;14.50;99.90;;;;;;5094617;28;19929;-78
2023/07/05 00:39:33;;;;;;;;;;;14.50;99.90;;;;;;5099902;28;19924;-79
2023/07/05 00:41:58;;;;;;;;;;;14.50;99.90;;;;;;5095510;28;19935;-79
2023/07/05 00:44:24;;;;;;;;;;;14.50;99.90;;;;;;5091571;28;20060;-79
2023/07/05 00:46:53;;;;;;;;;;;14.40;99.90;;;;;;5098456;28;19927;-80
2023/07/05 00:49:20;;;;;;;;;;;14.40;99.90;;;;;;5106549;28;19949;-80
2023/07/05 00:51:57;;;;;;;;;;;14.40;99.90;;;;;;5098857;28;19935;-80
2023/07/05 00:54:27;;;;;;;;;;;14.30;99.90;;;;;;5101386;28;19924;-80
2023/07/05 00:56:54;;;;;;;;;;;14.30;99.90;;;;;;5110428;28;19970;-79
2023/07/05 00:59:21;;;;;;;;;;;14.30;99.90;;;;;;5114564;28;19924;-79
2023/07/05 01:01:48;;;;;;;;;;;14.30;99.90;;;;;;5099301;28;20621;-79
2023/07/05 01:04:14;;;;;;;;;;;14.30;99.90;;;;;;5091443;28;20484;-78
2023/07/05 01:06:39;;;;;;;;;;;14.30;99.90;;;;;;5101442;28;19932;-78
2023/07/05 01:09:06;;;;;;;;;;;14.30;99.90;;;;;;5089351;28;20297;-78
2023/07/05 01:11:34;;;;;;;;;;;14.30;99.90;;;;;;5091844;28;20263;-79
2023/07/05 01:14:10;;;;;;;;;;;14.30;99.90;;;;;;5098880;28;19909;-79
2023/07/05 01:16:48;;;;;;;;;;;14.30;99.90;;;;;;5105216;28;19924;-77
2023/07/05 01:19:25;;;;;;;;;;;14.30;99.90;;;;;;5097519;28;20285;-79
2023/07/05 01:21:57;;;;;;;;;;;14.30;99.90;;;;;;5090891;28;19928;-78
2023/07/05 01:24:26;;;;;;;;;;;14.30;99.90;;;;;;5093681;28;19932;-78
2023/07/05 01:26:58;;;;;;;;;;;14.40;99.90;;;;;;5088972;28;19952;-77
2023/07/05 01:29:30;;;;;;;;;;;14.40;99.90;;;;;;5093364;28;19924;-78
2023/07/05 01:32:05;;;;;;;;;;;14.40;99.90;;;;;;5087666;28;19931;-78
2023/07/05 01:34:37;;;;;;;;;;;14.40;99.90;;;;;;5093106;28;20450;-80
2023/07/05 01:37:04;;;;;;;;;;;14.40;99.90;;;;;;5092578;28;19966;-78
2023/07/05 01:39:29;;;;;;;;;;;14.40;99.90;;;;;;5100426;28;19992;-79
2023/07/05 01:41:55;;;;;;;;;;;14.30;99.90;;;;;;5104126;28;19924;-81
2023/07/05 01:44:21;;;;;;;;;;;14.30;99.90;;;;;;5095696;28;19920;-79
2023/07/05 01:47:05;;;;;;;;;;;14.30;99.90;;;;;;5112967;28;19936;-79
2023/07/05 01:49:44;;;;;;;;;;;14.30;99.90;;;;;;5087117;28;19930;-80
2023/07/05 01:52:14;;;;;;;;;;;14.30;99.90;;;;;;5086603;28;19925;-78
2023/07/05 01:54:40;;;;;;;;;;;14.30;99.90;;;;;;5090628;28;19924;-80
2023/07/05 01:57:13;;;;;;;;;;;14.30;99.90;;;;;;5095929;28;20014;-81
2023/07/05 01:59:46;;;;;;;;;;;14.30;99.90;;;;;;5092095;28;19924;-81
2023/07/05 02:02:12;;;;;;;;;;;14.30;99.90;;;;;;5099114;28;19924;-81
2023/07/05 02:04:38;;;;;;;;;;;14.30;99.90;;;;;;5096516;28;20383;-80
2023/07/05 02:07:04;;;;;;;;;;;14.20;99.90;;;;;;5082871;28;19947;-79
2023/07/05 02:09:34;;;;;;;;;;;14.20;99.90;;;;;;5087881;28;19991;-80
2023/07/05 02:11:59;;;;;;;;;;;14.20;99.90;;;;;;5104588;28;19931;-79
2023/07/05 02:14:25;;;;;;;;;;;14.20;99.90;;;;;;5093720;28;19924;-80
2023/07/05 02:16:50;;;;;;;;;;;14.20;99.90;;;;;;5105998;28;19928;-78
2023/07/05 02:19:17;;;;;;;;;;;14.10;99.90;;;;;;5095234;28;20004;-78
2023/07/05 02:21:43;;;;;;;;;;;14.10;99.90;;;;;;5097421;28;20324;-78
2023/07/05 02:24:08;;;;;;;;;;;14.10;99.90;;;;;;5105541;28;19924;-78
2023/07/05 02:26:34;;;;;;;;;;;14.10;99.90;;;;;;5105502;28;19972;-78
2023/07/05 02:29:00;;;;;;;;;;;14.10;99.90;;;;;;5102440;28;19970;-78
2023/07/05 02:31:25;;;;;;;;;;;14.10;99.90;;;;;;5105621;28;20304;-77
2023/07/05 02:33:51;;;;;;;;;;;14.10;99.90;;;;;;5100752;28;19924;-76
2023/07/05 02:36:17;;;;;;;;;;;14.00;99.90;;;;;;5098137;28;19968;-77
2023/07/05 02:38:43;;;;;;;;;;;14.00;99.90;;;;;;5102919;28;19924;-78
2023/07/05 02:41:09;;;;;;;;;;;14.00;99.90;;;;;;5100761;28;19971;-76
2023/07/05 02:43:34;;;;;;;;;;;14.40;99.90;;;;;;5104443;28;20011;-78
2023/07/05 02:46:00;;;;;;;;;;;14.00;99.90;;;;;;5099446;28;19931;-78
2023/07/05 02:48:25;;;;;;;;;;;14.00;99.90;;;;;;5097456;28;19924;-77
2023/07/05 02:50:51;;;;;;;;;;;14.00;99.90;;;;;;5095298;28;19929;-82
2023/07/05 02:53:16;;;;;;;;;;;14.00;99.90;;;;;;5097838;28;19928;-78
2023/07/05 02:55:42;;;;;;;;;;;14.00;99.90;;;;;;5110674;28;19931;-78
2023/07/05 02:58:08;;;;;;;;;;;14.00;99.90;;;;;;5103666;28;19975;-82
2023/07/05 03:00:34;;;;;;;;;;;14.00;99.90;;;;;;5108951;28;19928;-79
2023/07/05 03:03:00;;;;;;;;;;;14.00;99.90;;;;;;5109793;28;20461;-81
2023/07/05 03:05:26;;;;;;;;;;;13.90;99.90;;;;;;5096892;28;19965;-80
2023/07/05 03:07:52;;;;;;;;;;;13.90;99.90;;;;;;5098642;28;20005;-80
2023/07/05 03:10:17;;;;;;;;;;;13.90;99.90;;;;;;5107751;28;19928;-80
2023/07/05 03:12:43;;;;;;;;;;;13.90;99.90;;;;;;5103484;28;19925;-79
2023/07/05 03:15:12;;;;;;;;;;;13.90;99.90;;;;;;5099158;28;20397;-78
2023/07/05 03:17:40;;;;;;;;;;;13.90;99.90;;;;;;5090212;28;20358;-78
2023/07/05 03:20:06;;;;;;;;;;;13.90;99.90;;;;;;5101079;28;20236;-79
2023/07/05 03:22:31;;;;;;;;;;;13.90;99.90;;;;;;5091962;28;19964;-78
2023/07/05 03:24:57;;;;;;;;;;;13.90;99.90;;;;;;5105452;28;20019;-79
2023/07/05 03:27:23;;;;;;;;;;;13.90;99.90;;;;;;5097292;28;19931;-81
2023/07/05 03:29:50;;;;;;;;;;;13.90;99.90;;;;;;5102190;28;19947;-81
2023/07/05 03:32:15;;;;;;;;;;;13.90;99.90;;;;;;5098031;28;19924;-81
2023/07/05 03:34:41;;;;;;;;;;;13.90;99.90;;;;;;5101634;28;19923;-79
2023/07/05 03:37:07;;;;;;;;;;;13.90;99.90;;;;;;5096949;28;19970;-78
2023/07/05 03:39:32;;;;;;;;;;;13.90;99.90;;;;;;5099962;28;19932;-79
2023/07/05 03:41:58;;;;;;;;;;;14.00;99.90;;;;;;5108596;28;19969;-80
2023/07/05 03:44:24;;;;;;;;;;;13.90;99.90;;;;;;5100920;28;20294;-79
2023/07/05 03:46:50;;;;;;;;;;;14.00;99.90;;;;;;5092345;28;19986;-79
2023/07/05 03:49:16;;;;;;;;;;;13.90;99.90;;;;;;5095006;28;19932;-76
2023/07/05 03:51:42;;;;;;;;;;;13.90;99.90;;;;;;5117933;27;19923;-78
2023/07/05 03:54:07;;;;;;;;;;;13.90;99.90;;;;;;5103317;28;19924;-78
2023/07/05 03:56:34;;;;;;;;;;;14.00;99.90;;;;;;5085749;28;19931;-77
2023/07/05 03:58:59;;;;;;;;;;;13.90;99.90;;;;;;5096741;28;19977;-77
2023/07/05 04:01:25;;;;;;;;;;;13.90;99.90;;;;;;5099784;28;20340;-77
2023/07/05 04:03:55;;;;;;;;;;;14.00;99.90;;;;;;5095384;28;19924;-77
2023/07/05 04:06:22;;;;;;;;;;;14.00;99.90;;;;;;5096955;28;19985;-79
2023/07/05 04:08:48;;;;;;;;;;;14.00;99.90;;;;;;5101657;28;20393;-78
2023/07/05 04:11:13;;;;;;;;;;;14.00;99.90;;;;;;5106541;28;19924;-79
2023/07/05 04:13:39;;;;;;;;;;;14.00;99.90;;;;;;5104544;28;19923;-79
2023/07/05 04:16:12;;;;;;;;;;;14.00;99.90;;;;;;5097265;28;19924;-79
2023/07/05 04:18:38;;;;;;;;;;;14.10;99.90;;;;;;5097119;28;19924;-78
2023/07/05 04:21:04;;;;;;;;;;;14.10;99.90;;;;;;5097401;28;20028;-77
2023/07/05 04:23:30;;;;;;;;;;;14.10;99.90;;;;;;5095500;28;19924;-78
2023/07/05 04:26:03;;;;;;;;;;;14.10;99.90;;;;;;5095487;28;19924;-78
2023/07/05 04:28:29;;;;;;;;;;;14.20;99.90;;;;;;5105303;28;19924;-77
2023/07/05 04:30:55;;;;;;;;;;;14.20;99.90;;;;;;5091121;28;19928;-75
2023/07/05 04:33:20;;;;;;;;;;;14.30;99.90;;;;;;5091115;28;20283;-77
2023/07/05 04:35:49;;;;;;;;;;;14.30;99.90;;;;;;5101707;28;19950;-77
2023/07/05 04:38:14;;;;;;;;;;;14.30;99.90;;;;;;5094954;28;19908;-78
2023/07/05 04:40:40;;;;;;;;;;;14.40;99.90;;;;;;5100277;28;19966;-76
2023/07/05 04:43:05;;;;;;;;;;;14.40;99.90;;;;;;5102973;28;20286;-78
2023/07/05 04:45:31;;;;;;;;;;;14.50;99.90;;;;;;5096161;28;19924;-77
2023/07/05 04:47:57;;;;;;;;;;;14.40;99.90;;;;;;5080536;28;19920;-77
2023/07/05 04:50:22;;;;;;;;;;;14.50;99.90;;;;;;5102357;28;19932;-78
2023/07/05 04:52:48;;;;;;;;;;;14.50;99.90;;;;;;5093937;28;19931;-76
2023/07/05 04:55:15;;;;;;;;;;;14.50;99.90;;;;;;5101682;28;22930;-78
2023/07/05 04:57:42;;;;;;;;;;;14.50;99.90;;;;;;5102951;28;19970;-78
2023/07/05 05:00:08;;;;;;;;;;;14.50;99.90;;;;;;5104096;28;19928;-77
2023/07/05 05:02:34;;;;;;;;;;;14.50;99.90;;;;;;5093579;28;19924;-78
2023/07/05 05:05:00;;;;;;;;;;;14.50;99.90;;;;;;5094607;28;20019;-78
2023/07/05 05:07:26;;;;;;;;;;;14.50;99.90;;;;;;5100758;28;19931;-77
2023/07/05 05:09:52;;;;;;;;;;;14.50;99.90;;;;;;5088761;28;19924;-78
2023/07/05 05:12:17;;;;;;;;;;;14.50;99.90;;;;;;5095452;28;19939;-78
2023/07/05 05:14:43;;;;;;;;;;;14.50;99.90;;;;;;5094493;28;19924;-78
2023/07/05 05:17:08;;;;;;;;;;;14.50;99.90;;;;;;5087514;28;19934;-77
2023/07/05 05:19:34;;;;;;;;;;;14.50;99.90;;;;;;5094852;28;20016;-79
2023/07/05 05:22:02;;;;;;;;;;;14.40;99.90;;;;;;5093908;28;19924;-77
2023/07/05 05:24:28;;;;;;;;;;;14.30;99.90;;;;;;5089695;28;20015;-76
2023/07/05 05:26:54;;;;;;;;;;;14.30;99.90;;;;;;5096791;28;19924;-76
2023/07/05 05:29:20;;;;;;;;;;;14.40;99.90;;;;;;5094679;28;20328;-79
2023/07/05 05:31:47;;;;;;;;;;;14.30;99.90;;;;;;5110139;28;20003;-76
2023/07/05 05:34:12;;;;;;;;;;;14.20;99.90;;;;;;5101189;28;19947;-79
2023/07/05 05:36:38;;;;;;;;;;;14.20;99.90;;;;;;5100062;28;20373;-77
2023/07/05 05:39:03;;;;;;;;;;;14.10;99.90;;;;;;5086985;28;20282;-78
2023/07/05 05:41:29;;;;;;;;;;;14.10;99.90;;;;;;5088827;28;19931;-78
2023/07/05 05:43:54;;;;;;;;;;;14.00;99.90;;;;;;5070785;28;19925;-79
2023/07/05 05:46:20;;;;;;;;;;;14.00;99.90;;;;;;5072921;28;19931;-77
2023/07/05 05:48:46;;;;;;;;;;;14.00;99.90;;;;;;5086165;28;19924;-78
2023/07/05 05:51:12;;;;;;;;;;;14.00;99.90;;;;;;5070458;28;19924;-77
2023/07/05 05:53:39;;;;;;;;;;;14.10;99.90;;;;;;5102015;28;19974;-77
2023/07/05 05:56:05;;;;;;;;;;;14.20;99.90;;;;;;5094629;28;19928;-77
2023/07/05 05:58:30;;;;;;;;;;;14.30;99.90;;;;;;5079029;28;19935;-77
2023/07/05 06:01:00;;;;;;;;;;;14.30;99.90;;;;;;5098631;28;20177;-77
2023/07/05 06:03:26;;;;;;;;;;;14.30;99.90;;;;;;5097057;28;20313;-77
2023/07/05 06:05:53;;;;;;;;;;;14.30;99.90;;;;;;5090193;28;19931;-76
2023/07/05 06:08:18;;;;;;;;;;;14.40;99.90;;;;;;5082377;28;19946;-77
2023/07/05 06:10:46;;;;;;;;;;;14.40;99.90;;;;;;5106663;27;20390;-78
2023/07/05 06:13:12;;;;;;;;;;;14.40;99.90;;;;;;5093493;28;19979;-76
2023/07/05 06:15:38;;;;;;;;;;;14.50;99.90;;;;;;5101238;28;19924;-76
2023/07/05 06:18:03;;;;;;;;;;;14.50;99.90;;;;;;5072908;28;19936;-76
2023/07/05 06:20:33;;;;;;;;;;;14.50;99.90;;;;;;5097652;28;20372;-77
2023/07/05 06:22:59;;;;;;;;;;;14.40;99.90;;;;;;5092671;28;19932;-76
2023/07/05 06:25:25;;;;;;;;;;;14.40;99.90;;;;;;5105233;27;19929;-76
2023/07/05 06:27:50;;;;;;;;;;;14.40;99.90;;;;;;5092797;28;19931;-76
2023/07/05 06:30:16;;;;;;;;;;;14.40;99.90;;;;;;5112352;28;20336;-76
2023/07/05 06:32:43;;;;;;;;;;;14.30;99.90;;;;;;5097413;28;20293;-78
2023/07/05 06:35:09;;;;;;;;;;;14.30;99.90;;;;;;5086632;28;19924;-76
2023/07/05 06:37:34;;;;;;;;;;;14.40;99.90;;;;;;5100084;28;19930;-77
2023/07/05 06:40:00;;;;;;;;;;;14.30;99.90;;;;;;5092502;28;20431;-77
2023/07/05 06:42:26;;;;;;;;;;;14.30;99.90;;;;;;5089296;28;19924;-76
2023/07/05 06:44:51;;;;;;;;;;;14.40;99.90;;;;;;5093911;28;19924;-77
2023/07/05 06:47:17;;;;;;;;;;;14.40;99.90;;;;;;5096442;28;19936;-77
2023/07/05 06:49:42;;;;;;;;;;;14.50;99.90;;;;;;5096769;28;19931;-77
2023/07/05 06:52:08;;;;;;;;;;;14.50;99.90;;;;;;5092686;28;20274;-77
2023/07/05 06:54:33;;;;;;;;;;;14.50;99.90;;;;;;5110598;27;20402;-77
2023/07/05 06:57:00;;;;;;;;;;;14.60;99.90;;;;;;5093099;28;20035;-77
2023/07/05 06:59:25;;;;;;;;;;;14.60;99.90;;;;;;5097549;28;20386;-77
2023/07/05 07:01:51;;;;;;;;;;;14.50;99.90;;;;;;5089396;28;19931;-77
2023/07/05 07:04:16;;;;;;;;;;;14.40;99.90;;;;;;5088509;28;19928;-76
2023/07/05 07:06:42;;;;;;;;;;;14.40;99.90;;;;;;5099230;28;19924;-76
2023/07/05 07:09:08;;;;;;;;;;;14.30;99.90;;;;;;5098762;28;19931;-77
2023/07/05 07:11:34;;;;;;;;;;;14.30;99.90;;;;;;5078821;28;20022;-77
2023/07/05 07:13:59;;;;;;;;;;;14.40;99.90;;;;;;5085958;28;19971;-76
2023/07/05 07:16:25;;;;;;;;;;;14.70;99.90;;;;;;5088608;28;20445;-77
2023/07/05 07:18:51;;;;;;;;;;;14.90;99.90;;;;;;5088931;28;19924;-76
2023/07/05 07:21:18;;;;;;;;;;;15.10;99.90;;;;;;5105686;28;20317;-78
2023/07/05 07:23:47;;;;;;;;;;;15.30;99.90;;;;;;5091089;28;19985;-78
2023/07/05 07:26:16;;;;;;;;;;;15.50;99.90;;;;;;5089046;28;19932;-77
2023/07/05 07:28:44;;;;;;;;;;;15.70;99.90;;;;;;5092901;28;19924;-77
2023/07/05 07:31:10;;;;;;;;;;;15.70;99.90;;;;;;5097218;28;19931;-77
2023/07/05 07:33:35;;;;;;;;;;;15.60;99.90;;;;;;5086866;28;19925;-78
2023/07/05 07:36:13;;;;;;;;;;;15.50;99.90;;;;;;5092279;28;20378;-76
2023/07/05 07:38:39;;;;;;;;;;;15.30;99.90;;;;;;5089832;28;19932;-78
2023/07/05 07:41:11;;;;;;;;;;;15.10;99.90;;;;;;5094865;28;19984;-78
2023/07/05 07:43:36;;;;;;;;;;;15.00;99.90;;;;;;5090485;28;19924;-78
2023/07/05 07:46:06;;;;;;;;;;;15.00;99.90;;;;;;5088335;28;19924;-77
2023/07/05 07:48:31;;;;;;;;;;;15.00;99.90;;;;;;5098067;28;19925;-78
2023/07/05 07:50:57;;;;;;;;;;;15.00;99.90;;;;;;5088776;28;19955;-77
2023/07/05 07:53:22;;;;;;;;;;;14.90;99.90;;;;;;5097819;28;20437;-77
2023/07/05 07:55:48;;;;;;;;;;;14.80;99.90;;;;;;5093883;28;20408;-78
2023/07/05 07:58:13;;;;;;;;;;;14.70;99.90;;;;;;5094600;28;19931;-78
2023/07/05 08:00:39;;;;;;;;;;;14.60;99.90;;;;;;5114380;28;19932;-79
2023/07/05 08:03:05;;;;;;;;;;;14.40;99.90;;;;;;5094960;28;19924;-80
2023/07/05 08:05:30;;;;;;;;;;;14.30;99.90;;;;;;5085141;28;19924;-79
2023/07/05 08:07:56;;;;;;;;;;;14.20;99.90;;;;;;5100517;28;19939;-78
2023/07/05 08:10:21;;;;;;;;;;;14.00;99.90;;;;;;5098868;28;19947;-77
2023/07/05 08:12:47;;;;;;;;;;;13.90;99.90;;;;;;5094399;28;19939;-78
2023/07/05 08:15:12;;;;;;;;;;;13.80;99.90;;;;;;5105938;28;19924;-78
2023/07/05 08:17:39;;;;;;;;;;;13.70;99.90;;;;;;5095005;28;19924;-78
2023/07/05 08:20:05;;;;;;;;;;;13.70;99.90;;;;;;5091789;28;20338;-80
2023/07/05 08:22:30;;;;;;;;;;;13.50;99.90;;;;;;5092738;28;20305;-80
2023/07/05 08:24:56;;;;;;;;;;;13.40;99.90;;;;;;5099268;28;19924;-79
2023/07/05 08:27:24;;;;;;;;;;;13.10;99.90;;;;;;5098618;28;19926;-80
2023/07/05 08:29:52;;;;;;;;;;;12.90;99.90;;;;;;5111148;27;19935;-80
2023/07/05 08:32:19;;;;;;;;;;;12.80;99.90;;;;;;5096937;28;19928;-80
2023/07/05 08:34:45;;;;;;;;;;;12.80;99.90;;;;;;5099991;28;20293;-79
2023/07/05 08:37:10;;;;;;;;;;;12.50;99.90;;;;;;5101084;28;19935;-78
2023/07/05 08:39:36;;;;;;;;;;;12.40;99.90;;;;;;5094887;28;20007;-78
2023/07/05 08:42:20;;;;;;;;;;;12.30;99.90;;;;;;5087175;28;19923;-77
2023/07/05 08:44:54;;;;;;;;;;;12.30;99.90;;;;;;5102917;28;20431;-78
2023/07/05 08:47:32;;;;;;;;;;;12.20;99.90;;;;;;5106214;28;19931;-79
2023/07/05 08:50:06;;;;;;;;;;;12.10;99.90;;;;;;5093355;28;19924;-78
2023/07/05 08:52:34;;;;;;;;;;;12.10;99.90;;;;;;5079070;28;19989;-78
2023/07/05 08:55:03;;;;;;;;;;;12.00;99.90;;;;;;5094667;28;19924;-77
2023/07/05 08:57:30;;;;;;;;;;;12.00;99.90;;;;;;5096171;28;19924;-79
2023/07/05 08:59:59;;;;;;;;;;;11.90;99.90;;;;;;5102147;28;19930;-78
2023/07/05 09:02:26;;;;;;;;;;;11.90;99.90;;;;;;5100777;28;19947;-78
2023/07/05 09:04:53;;;;;;;;;;;11.90;99.90;;;;;;5090500;28;20340;-78
2023/07/05 09:07:37;;;;;;;;;;;11.90;99.90;;;;;;5101034;28;19924;-79
2023/07/05 09:10:21;;;;;;;;;;;11.90;99.90;;;;;;5110672;28;19928;-78
2023/07/05 09:12:59;;;;;;;;;;;11.90;99.90;;;;;;5096862;28;20287;-80
2023/07/05 09:15:29;;;;;;;;;;;11.80;99.90;;;;;;5090313;28;19932;-79
2023/07/05 09:18:13;;;;;;;;;;;11.90;99.90;;;;;;5088116;28;19927;-77
2023/07/05 09:20:45;;;;;;;;;;;11.90;99.90;;;;;;5099599;28;19976;-78
2023/07/05 09:23:22;;;;;;;;;;;11.90;99.90;;;;;;5096531;28;19983;-79
2023/07/05 09:25:49;;;;;;;;;;;11.90;99.90;;;;;;5100501;28;20024;-79
2023/07/05 09:28:21;;;;;;;;;;;11.90;99.90;;;;;;5086423;28;20009;-78
2023/07/05 09:30:46;;;;;;;;;;;12.00;99.90;;;;;;5093423;28;19928;-82
2023/07/05 09:33:17;;;;;;;;;;;12.00;99.90;;;;;;5106695;28;20401;-77
2023/07/05 09:35:44;;;;;;;;;;;12.10;99.90;;;;;;5117606;27;20386;-80
2023/07/05 09:38:18;;;;;;;;;;;12.10;99.90;;;;;;5101751;28;19928;-79
2023/07/05 09:41:10;;;;;;;;;;;12.20;99.90;;;;;;5106520;28;19986;-79
2023/07/05 09:43:36;;;;;;;;;;;12.30;99.90;;;;;;5090740;28;19955;-78
2023/07/05 09:46:34;;;;;;;;;;;12.30;99.90;;;;;;5096784;28;20015;-77
2023/07/05 09:48:59;;;;;;;;;;;12.40;99.90;;;;;;5044132;28;19931;-79
2023/07/05 09:51:25;;;;;;;;;;;12.50;99.90;;;;;;5101340;28;19928;-78
2023/07/05 09:54:02;;;;;;;;;;;12.50;99.90;;;;;;5102360;28;19932;-78
2023/07/05 09:56:28;;;;;;;;;;;12.60;99.90;;;;;;5098692;28;20550;-80
2023/07/05 09:59:12;;;;;;;;;;;12.70;99.90;;;;;;5099246;28;19950;-78
2023/07/05 10:01:40;;;;;;;;;;;12.70;99.90;;;;;;5103332;28;19928;-79
2023/07/05 10:04:05;;;;;;;;;;;12.70;99.90;;;;;;5101208;28;20019;-79
2023/07/05 10:06:31;;;;;;;;;;;12.80;99.90;;;;;;5095807;28;19960;-79
2023/07/05 10:09:00;;;;;;;;;;;12.80;99.90;;;;;;5096113;28;19958;-80
2023/07/05 10:11:33;;;;;;;;;;;12.90;99.90;;;;;;5108445;28;19931;-80
2023/07/05 10:14:05;;;;;;;;;;;12.90;99.90;;;;;;5103767;28;19924;-78
2023/07/05 10:16:51;;;;;;;;;;;13.00;99.90;;;;;;5098411;28;19932;-78
2023/07/05 10:19:24;;;;;;;;;;;13.10;99.90;;;;;;5093839;28;19926;-77
2023/07/05 10:22:15;;;;;;;;;;;13.30;99.90;;;;;;5098247;28;20277;-80
2023/07/05 10:24:43;;;;;;;;;;;13.40;99.90;;;;;;5105980;28;20075;-80
2023/07/05 10:27:15;;;;;;;;;;;13.60;99.90;;;;;;5086344;28;20302;-79
2023/07/05 10:29:41;;;;;;;;;;;13.80;99.90;;;;;;5100855;28;19924;-79
2023/07/05 10:32:15;;;;;;;;;;;14.10;99.90;;;;;;5100695;28;20321;-78
2023/07/05 10:34:43;;;;;;;;;;;14.30;99.90;;;;;;5102320;28;20043;-79
2023/07/05 10:37:25;;;;;;;;;;;14.50;99.90;;;;;;5103920;28;19908;-78
2023/07/05 10:39:53;;;;;;;;;;;14.50;99.90;;;;;;5096655;28;19931;-79
2023/07/05 10:42:19;;;;;;;;;;;14.50;99.90;;;;;;5111993;27;19928;-79
2023/07/05 10:44:45;;;;;;;;;;;14.60;99.90;;;;;;5099770;28;19935;-79
2023/07/05 10:47:12;;;;;;;;;;;14.50;99.90;;;;;;5099829;28;20313;-79
2023/07/05 10:49:37;;;;;;;;;;;14.60;99.90;;;;;;5100157;28;20417;-79
2023/07/05 10:52:05;;;;;;;;;;;14.60;99.90;;;;;;5085808;28;19931;-80
2023/07/05 10:54:44;;;;;;;;;;;14.60;99.90;;;;;;5100187;28;19931;-79
2023/07/05 10:57:17;;;;;;;;;;;14.60;99.90;;;;;;5090337;28;19925;-78
2023/07/05 10:59:45;;;;;;;;;;;14.70;99.90;;;;;;5092423;28;19967;-78
2023/07/05 11:02:25;;;;;;;;;;;14.80;99.90;;;;;;5091321;28;19924;-78
2023/07/05 11:04:52;;;;;;;;;;;15.00;99.90;;;;;;5104266;28;19974;-81
2023/07/05 11:07:19;;;;;;;;;;;15.20;99.90;;;;;;5105373;28;19949;-79
2023/07/05 11:09:45;;;;;;;;;;;15.30;99.90;;;;;;5091993;28;19924;-80
2023/07/05 11:12:20;;;;;;;;;;;15.50;99.90;;;;;;5115594;27;19909;-79
2023/07/05 11:14:46;;;;;;;;;;;15.70;99.90;;;;;;5092794;28;19924;-79
2023/07/05 11:17:19;;;;;;;;;;;15.90;99.90;;;;;;5088618;28;19977;-79
2023/07/05 11:19:45;;;;;;;;;;;16.10;99.90;;;;;;5097011;28;19936;-79
2023/07/05 11:22:30;;;;;;;;;;;16.40;99.90;;;;;;5114521;27;20014;-78
2023/07/05 11:24:56;;;;;;;;;;;16.50;99.90;;;;;;5092019;28;19979;-77
2023/07/05 11:27:24;;;;;;;;;;;16.70;99.90;;;;;;5091787;28;19928;-80
2023/07/05 11:29:52;;;;;;;;;;;16.90;99.90;;;;;;5102589;28;19978;-79
2023/07/05 11:32:21;;;;;;;;;;;17.00;99.90;;;;;;5101805;28;20278;-78
2023/07/05 11:34:48;;;;;;;;;;;17.00;99.90;;;;;;5107339;28;19920;-78
2023/07/05 11:37:14;;;;;;;;;;;17.00;99.90;;;;;;5094718;28;19925;-80
2023/07/05 11:39:40;;;;;;;;;;;17.00;99.90;;;;;;5097596;28;20412;-78
2023/07/05 11:42:12;;;;;;;;;;;17.00;99.90;;;;;;5105779;28;20006;-79
2023/07/05 11:44:38;;;;;;;;;;;17.00;99.90;;;;;;5126440;27;19935;-78
2023/07/05 11:47:04;;;;;;;;;;;17.00;99.90;;;;;;5107304;28;19924;-77
2023/07/05 11:49:29;;;;;;;;;;;16.90;99.90;;;;;;5111970;28;19924;-80
2023/07/05 11:51:57;;;;;;;;;;;16.80;99.90;;;;;;5088795;28;19979;-78
2023/07/05 11:54:25;;;;;;;;;;;16.70;99.90;;;;;;5089180;28;20302;-78
2023/07/05 11:56:52;;;;;;;;;;;16.60;99.90;;;;;;5097614;28;19931;-78
2023/07/05 11:59:20;;;;;;;;;;;16.90;99.90;;;;;;5100140;28;19935;-79
2023/07/05 12:01:46;;;;;;;;;;;16.80;99.90;;;;;;5087972;28;19963;-79
2023/07/05 12:04:18;;;;;;;;;;;16.80;99.90;;;;;;5107220;27;19924;-78
2023/07/05 12:06:45;;;;;;;;;;;16.90;99.90;;;;;;5094087;28;19928;-78
2023/07/05 12:09:16;;;;;;;;;;;17.00;99.90;;;;;;5091945;28;19931;-78
2023/07/05 12:11:42;;;;;;;;;;;16.90;99.90;;;;;;5110130;27;20290;-78
2023/07/05 12:14:12;;;;;;;;;;;16.90;99.90;;;;;;5081593;28;19935;-79
2023/07/05 12:16:41;;;;;;;;;;;16.80;99.90;;;;;;5089431;28;19912;-79
2023/07/05 12:19:12;;;;;;;;;;;16.50;99.90;;;;;;5095159;28;19939;-79
2023/07/05 12:21:37;;;;;;;;;;;16.30;99.90;;;;;;5089058;28;19928;-79
2023/07/05 12:24:04;;;;;;;;;;;16.00;99.90;;;;;;5092956;28;19971;-78
2023/07/05 12:26:31;;;;;;;;;;;15.70;99.90;;;;;;5082653;28;19963;-77
2023/07/05 12:29:03;;;;;;;;;;;15.50;99.90;;;;;;5106041;28;19908;-79
2023/07/05 12:31:29;;;;;;;;;;;15.30;99.90;;;;;;5098566;28;19924;-80
2023/07/05 12:33:56;;;;;;;;;;;15.10;99.90;;;;;;5098355;28;20348;-79
2023/07/05 12:36:25;;;;;;;;;;;14.90;99.90;;;;;;5088407;28;19928;-79
2023/07/05 12:39:07;;;;;;;;;;;14.80;99.90;;;;;;5092036;28;19924;-80
2023/07/05 12:41:32;;;;;;;;;;;14.60;99.90;;;;;;5092915;28;20072;-81
2023/07/05 12:43:59;;;;;;;;;;;14.50;99.90;;;;;;5087841;28;19986;-79
2023/07/05 12:46:26;;;;;;;;;;;14.30;99.90;;;;;;5087291;28;19998;-80
2023/07/05 12:48:52;;;;;;;;;;;14.20;99.90;;;;;;5094608;28;20392;-78
2023/07/05 12:51:21;;;;;;;;;;;14.10;99.90;;;;;;5090625;28;19924;-79
2023/07/05 12:53:51;;;;;;;;;;;14.00;99.90;;;;;;5073504;28;19928;-78
2023/07/05 12:56:22;;;;;;;;;;;14.00;99.90;;;;;;5084141;28;19994;-79
2023/07/05 12:58:52;;;;;;;;;;;13.90;99.90;;;;;;5084226;28;19990;-79
2023/07/05 13:01:19;;;;;;;;;;;13.90;99.90;;;;;;5114466;28;20302;-79
2023/07/05 13:03:48;;;;;;;;;;;13.80;99.90;;;;;;5102422;28;19947;-80
2023/07/05 13:06:14;;;;;;;;;;;13.80;99.90;;;;;;5106407;28;19979;-81
2023/07/05 13:08:46;;;;;;;;;;;13.80;99.90;;;;;;5110190;28;20235;-80
2023/07/05 13:11:19;;;;;;;;;;;13.80;99.90;;;;;;5111992;28;19987;-80
2023/07/05 13:13:45;;;;;;;;;;;13.80;99.90;;;;;;5119544;28;19925;-80
2023/07/05 13:16:28;;;;;;;;;;;13.70;99.90;;;;;;5108153;28;19924;-79
2023/07/05 13:19:00;;;;;;;;;;;13.70;99.90;;;;;;5106937;28;19963;-80
2023/07/05 13:21:35;;;;;;;;;;;13.60;99.90;;;;;;5104620;28;20040;-81
2023/07/05 13:24:06;;;;;;;;;;;13.60;99.90;;;;;;5107686;28;19939;-80
2023/07/05 13:26:36;;;;;;;;;;;13.60;99.90;;;;;;5106811;28;19970;-81
2023/07/05 13:29:13;;;;;;;;;;;13.50;99.90;;;;;;5106246;28;19924;-79
2023/07/05 13:31:45;;;;;;;;;;;13.40;99.90;;;;;;5112833;28;19931;-84
2023/07/05 13:34:10;;;;;;;;;;;13.30;99.90;;;;;;5126528;28;19924;-81
2023/07/05 13:36:36;;;;;;;;;;;13.20;99.90;;;;;;5095069;28;19932;-81
2023/07/05 13:39:04;;;;;;;;;;;13.20;99.90;;;;;;5092559;28;20624;-82
2023/07/05 13:41:30;;;;;;;;;;;13.10;99.90;;;;;;5123537;28;19931;-81
2023/07/05 13:43:56;;;;;;;;;;;13.10;99.90;;;;;;5106070;28;19924;-78
2023/07/05 13:46:22;;;;;;;;;;;13.00;99.90;;;;;;5111631;28;20038;-80
2023/07/05 13:48:48;;;;;;;;;;;12.60;99.90;;;;;;5119371;28;19934;-80
2023/07/05 13:51:23;;;;;;;;;;;13.00;99.90;;;;;;5108666;28;19928;-80
2023/07/05 13:53:48;;;;;;;;;;;12.40;99.90;;;;;;5108852;28;19988;-80
2023/07/05 13:56:14;;;;;;;;;;;12.90;99.90;;;;;;5100937;28;19931;-80
2023/07/05 13:58:40;;;;;;;;;;;13.00;99.90;;;;;;5100592;28;19924;-79
2023/07/05 14:01:08;;;;;;;;;;;12.90;99.90;;;;;;5103955;28;19931;-80
2023/07/05 14:03:33;;;;;;;;;;;12.90;99.90;;;;;;5106059;28;20370;-81
2023/07/05 14:05:59;;;;;;;;;;;13.00;99.90;;;;;;5100078;28;19950;-80
2023/07/05 14:08:26;;;;;;;;;;;13.00;99.90;;;;;;5105841;28;19924;-82
2023/07/05 14:10:52;;;;;;;;;;;13.10;99.90;;;;;;5088922;28;20006;-80
2023/07/05 14:13:19;;;;;;;;;;;13.10;99.90;;;;;;5099284;28;20377;-79
2023/07/05 14:15:45;;;;;;;;;;;13.20;99.90;;;;;;5101135;28;20015;-80
2023/07/05 14:18:15;;;;;;;;;;;13.20;99.90;;;;;;5103673;28;20424;-80
2023/07/05 14:20:41;;;;;;;;;;;13.00;99.90;;;;;;5099435;28;20340;-79